sensor_id;sensor_type;location;lat;lon;timestamp;temperature;humidity
23550;DHT22;11953;49.010;8.608;2023-02-28T00:00:10;-0.10;99.90
23550;DHT22;11953;49.010;8.608;2023-02-28T00:02:57;-0.10;99.90
23550;DHT22;11953;49.010;8.608;2023-02-28T00:05:46;-0.10;99.90
23550;DHT22;11953;49.010;8.608;2023-02-28T00:08:32;-0.10;99.90
23550;DHT22;11953;49.010;8.608;2023-02-28T00:11:19;-0.10;99.90
23550;DHT22;11953;49.010;8.608;2023-02-28T00:14:05;0.00;99.90
23550;DHT22;11953;49.010;8.608;2023-02-28T00:16:52;-0.10;99.90
23550;DHT22;11953;49.010;8.608;2023-02-28T00:19:39;-0.10;99.90
23550;DHT22;11953;49.010;8.608;2023-02-28T00:22:27;-0.10;99.90
23550;DHT22;11953;49.010;8.608;2023-02-28T00:25:15;-0.20;99.90
23550;DHT22;11953;49.010;8.608;2023-02-28T00:28:03;-0.20;99.90
23550;DHT22;11953;49.010;8.608;2023-02-28T00:30:50;-0.20;99.90
23550;DHT22;11953;49.010;8.608;2023-02-28T00:33:37;-0.20;99.90
23550;DHT22;11953;49.010;8.608;2023-02-28T00:36:23;-0.20;99.90
23550;DHT22;11953;49.010;8.608;2023-02-28T00:39:12;-0.20;99.90
23550;DHT22;11953;49.010;8.608;2023-02-28T00:41:58;-0.20;99.90
23550;DHT22;11953;49.010;8.608;2023-02-28T00:44:44;-0.20;99.90
23550;DHT22;11953;49.010;8.608;2023-02-28T00:47:32;-0.30;99.90
23550;DHT22;11953;49.010;8.608;2023-02-28T00:50:19;-0.30;99.90
23550;DHT22;11953;49.010;8.608;2023-02-28T00:53:06;-0.30;99.90
23550;DHT22;11953;49.010;8.608;2023-02-28T00:55:54;-0.30;99.90
23550;DHT22;11953;49.010;8.608;2023-02-28T00:58:41;-0.30;99.90
23550;DHT22;11953;49.010;8.608;2023-02-28T01:01:28;-0.30;99.90
23550;DHT22;11953;49.010;8.608;2023-02-28T01:04:16;-0.30;99.90
23550;DHT22;11953;49.010;8.608;2023-02-28T01:07:03;-0.30;99.90
23550;DHT22;11953;49.010;8.608;2023-02-28T01:09:49;-0.30;99.90
23550;DHT22;11953;49.010;8.608;2023-02-28T01:12:37;-0.20;99.90
23550;DHT22;11953;49.010;8.608;2023-02-28T01:15:23;-0.30;99.90
23550;DHT22;11953;49.010;8.608;2023-02-28T01:18:10;-0.30;99.90
23550;DHT22;11953;49.010;8.608;2023-02-28T01:20:57;-0.30;99.90
23550;DHT22;11953;49.010;8.608;2023-02-28T01:23:44;-0.30;99.90
23550;DHT22;11953;49.010;8.608;2023-02-28T01:26:31;-0.30;99.90
23550;DHT22;11953;49.010;8.608;2023-02-28T01:29:19;-0.20;99.90
23550;DHT22;11953;49.010;8.608;2023-02-28T01:32:05;-0.30;99.90
23550;DHT22;11953;49.010;8.608;2023-02-28T01:34:54;-0.30;99.90
23550;DHT22;11953;49.010;8.608;2023-02-28T01:37:41;-0.30;99.90
23550;DHT22;11953;49.010;8.608;2023-02-28T01:40:27;-0.30;99.90
23550;DHT22;11953;49.010;8.608;2023-02-28T01:43:21;-0.30;99.90
23550;DHT22;11953;49.010;8.608;2023-02-28T01:46:10;-0.30;99.90
23550;DHT22;11953;49.010;8.608;2023-02-28T01:49:02;-0.20;99.90
23550;DHT22;11953;49.010;8.608;2023-02-28T01:51:53;-0.20;99.90
23550;DHT22;11953;49.010;8.608;2023-02-28T01:54:43;-0.20;99.90
23550;DHT22;11953;49.010;8.608;2023-02-28T01:57:34;-0.40;99.90
23550;DHT22;11953;49.010;8.608;2023-02-28T02:00:24;-0.30;99.90
23550;DHT22;11953;49.010;8.608;2023-02-28T02:03:15;-0.40;99.90
23550;DHT22;11953;49.010;8.608;2023-02-28T02:06:04;-0.30;99.90
23550;DHT22;11953;49.010;8.608;2023-02-28T02:08:53;-0.40;99.90
23550;DHT22;11953;49.010;8.608;2023-02-28T02:11:41;-0.40;99.90
23550;DHT22;11953;49.010;8.608;2023-02-28T02:14:41;-0.30;99.90
23550;DHT22;11953;49.010;8.608;2023-02-28T02:17:34;-0.30;99.90
23550;DHT22;11953;49.010;8.608;2023-02-28T02:20:38;-0.40;99.90
23550;DHT22;11953;49.010;8.608;2023-02-28T02:27:20;-0.40;99.90
23550;DHT22;11953;49.010;8.608;2023-02-28T02:30:29;-0.40;99.90
23550;DHT22;11953;49.010;8.608;2023-02-28T02:36:36;-0.40;99.90
23550;DHT22;11953;49.010;8.608;2023-02-28T02:39:30;-0.50;99.90
23550;DHT22;11953;49.010;8.608;2023-02-28T02:42:23;-0.50;99.90
23550;DHT22;11953;49.010;8.608;2023-02-28T02:45:15;-0.50;99.90
23550;DHT22;11953;49.010;8.608;2023-02-28T02:48:07;-0.50;99.90
23550;DHT22;11953;49.010;8.608;2023-02-28T02:50:57;-0.50;99.90
23550;DHT22;11953;49.010;8.608;2023-02-28T02:53:48;-0.50;99.90
23550;DHT22;11953;49.010;8.608;2023-02-28T02:56:37;-0.50;99.90
23550;DHT22;11953;49.010;8.608;2023-02-28T02:59:26;-0.50;99.90
23550;DHT22;11953;49.010;8.608;2023-02-28T03:02:16;-0.50;99.90
23550;DHT22;11953;49.010;8.608;2023-02-28T03:05:08;-0.50;99.90
23550;DHT22;11953;49.010;8.608;2023-02-28T03:07:58;-0.50;99.90
23550;DHT22;11953;49.010;8.608;2023-02-28T03:10:50;-0.50;99.90
23550;DHT22;11953;49.010;8.608;2023-02-28T03:13:49;-0.50;99.90
23550;DHT22;11953;49.010;8.608;2023-02-28T03:16:53;-0.40;99.90
23550;DHT22;11953;49.010;8.608;2023-02-28T03:19:54;-0.40;99.90
23550;DHT22;11953;49.010;8.608;2023-02-28T03:22:52;-0.40;99.90
23550;DHT22;11953;49.010;8.608;2023-02-28T03:25:54;-0.30;99.90
23550;DHT22;11953;49.010;8.608;2023-02-28T03:28:45;-0.30;99.90
23550;DHT22;11953;49.010;8.608;2023-02-28T03:31:36;-0.30;99.90
23550;DHT22;11953;49.010;8.608;2023-02-28T03:34:28;-0.30;99.90
23550;DHT22;11953;49.010;8.608;2023-02-28T03:37:19;-0.40;99.90
23550;DHT22;11953;49.010;8.608;2023-02-28T03:40:10;-0.30;99.90
23550;DHT22;11953;49.010;8.608;2023-02-28T03:43:04;-0.40;99.90
23550;DHT22;11953;49.010;8.608;2023-02-28T03:45:55;-0.50;99.90
23550;DHT22;11953;49.010;8.608;2023-02-28T03:48:45;-0.50;99.90
23550;DHT22;11953;49.010;8.608;2023-02-28T03:51:32;-0.50;99.90
23550;DHT22;11953;49.010;8.608;2023-02-28T03:54:25;-0.50;99.90
23550;DHT22;11953;49.010;8.608;2023-02-28T03:57:20;-0.50;99.90
23550;DHT22;11953;49.010;8.608;2023-02-28T04:00:14;-0.50;99.90
23550;DHT22;11953;49.010;8.608;2023-02-28T04:03:02;-0.50;99.90
23550;DHT22;11953;49.010;8.608;2023-02-28T04:05:51;-0.50;99.90
23550;DHT22;11953;49.010;8.608;2023-02-28T04:08:38;-0.50;99.90
23550;DHT22;11953;49.010;8.608;2023-02-28T04:11:29;-0.50;99.90
23550;DHT22;11953;49.010;8.608;2023-02-28T04:14:18;-0.50;99.90
23550;DHT22;11953;49.010;8.608;2023-02-28T04:17:06;-0.50;99.90
23550;DHT22;11953;49.010;8.608;2023-02-28T04:19:53;-0.50;99.90
23550;DHT22;11953;49.010;8.608;2023-02-28T04:22:42;-0.50;99.90
23550;DHT22;11953;49.010;8.608;2023-02-28T04:25:29;-0.50;99.90
23550;DHT22;11953;49.010;8.608;2023-02-28T04:28:15;-0.50;99.90
23550;DHT22;11953;49.010;8.608;2023-02-28T04:31:03;-0.60;99.90
23550;DHT22;11953;49.010;8.608;2023-02-28T04:33:51;-0.60;99.90
23550;DHT22;11953;49.010;8.608;2023-02-28T04:36:38;-0.60;99.90
23550;DHT22;11953;49.010;8.608;2023-02-28T04:39:25;-0.60;99.90
23550;DHT22;11953;49.010;8.608;2023-02-28T04:42:12;-0.60;99.90
23550;DHT22;11953;49.010;8.608;2023-02-28T04:44:59;-0.60;99.90
23550;DHT22;11953;49.010;8.608;2023-02-28T04:47:45;-0.60;99.90
23550;DHT22;11953;49.010;8.608;2023-02-28T04:50:33;-0.60;99.90
23550;DHT22;11953;49.010;8.608;2023-02-28T04:53:20;-0.70;99.90
23550;DHT22;11953;49.010;8.608;2023-02-28T04:56:07;-0.60;99.90
23550;DHT22;11953;49.010;8.608;2023-02-28T04:58:54;-0.60;99.90
23550;DHT22;11953;49.010;8.608;2023-02-28T05:01:46;-0.70;99.90
23550;DHT22;11953;49.010;8.608;2023-02-28T05:04:33;-0.60;99.90
23550;DHT22;11953;49.010;8.608;2023-02-28T05:07:22;-0.70;99.90
23550;DHT22;11953;49.010;8.608;2023-02-28T05:10:11;-0.70;99.90
23550;DHT22;11953;49.010;8.608;2023-02-28T05:12:58;-0.70;99.90
23550;DHT22;11953;49.010;8.608;2023-02-28T05:15:44;-0.70;99.90
23550;DHT22;11953;49.010;8.608;2023-02-28T05:18:31;-0.70;99.90
23550;DHT22;11953;49.010;8.608;2023-02-28T05:21:25;-0.70;99.90
23550;DHT22;11953;49.010;8.608;2023-02-28T05:24:14;-0.70;99.90
23550;DHT22;11953;49.010;8.608;2023-02-28T05:27:01;-0.70;99.90
23550;DHT22;11953;49.010;8.608;2023-02-28T05:29:48;-0.70;99.90
23550;DHT22;11953;49.010;8.608;2023-02-28T05:32:34;-0.70;99.90
23550;DHT22;11953;49.010;8.608;2023-02-28T05:35:21;-0.60;99.90
23550;DHT22;11953;49.010;8.608;2023-02-28T05:38:08;-0.60;99.90
23550;DHT22;11953;49.010;8.608;2023-02-28T05:40:56;-0.70;99.90
23550;DHT22;11953;49.010;8.608;2023-02-28T05:43:43;-0.70;99.90
23550;DHT22;11953;49.010;8.608;2023-02-28T05:46:30;-0.70;99.90
23550;DHT22;11953;49.010;8.608;2023-02-28T05:49:16;-0.70;99.90
23550;DHT22;11953;49.010;8.608;2023-02-28T05:52:03;-0.70;99.90
23550;DHT22;11953;49.010;8.608;2023-02-28T05:54:50;-0.70;99.90
23550;DHT22;11953;49.010;8.608;2023-02-28T05:57:38;-0.70;99.90
23550;DHT22;11953;49.010;8.608;2023-02-28T06:00:25;-0.70;99.90
23550;DHT22;11953;49.010;8.608;2023-02-28T06:03:12;-0.70;99.90
23550;DHT22;11953;49.010;8.608;2023-02-28T06:05:59;-0.70;99.90
23550;DHT22;11953;49.010;8.608;2023-02-28T06:08:45;-0.70;99.90
23550;DHT22;11953;49.010;8.608;2023-02-28T06:11:32;-0.70;99.90
23550;DHT22;11953;49.010;8.608;2023-02-28T06:14:20;-0.60;99.90
23550;DHT22;11953;49.010;8.608;2023-02-28T06:17:09;-0.60;99.90
23550;DHT22;11953;49.010;8.608;2023-02-28T06:19:56;-0.60;99.90
23550;DHT22;11953;49.010;8.608;2023-02-28T06:22:43;-0.60;99.90
23550;DHT22;11953;49.010;8.608;2023-02-28T06:25:29;-0.60;99.90
23550;DHT22;11953;49.010;8.608;2023-02-28T06:28:16;-0.50;99.90
23550;DHT22;11953;49.010;8.608;2023-02-28T06:31:08;-0.50;99.90
23550;DHT22;11953;49.010;8.608;2023-02-28T06:33:55;-0.50;99.90
23550;DHT22;11953;49.010;8.608;2023-02-28T06:36:42;-0.50;99.90
23550;DHT22;11953;49.010;8.608;2023-02-28T06:39:29;-0.50;99.90
23550;DHT22;11953;49.010;8.608;2023-02-28T06:42:15;-0.50;99.90
23550;DHT22;11953;49.010;8.608;2023-02-28T06:45:03;-0.50;99.90
23550;DHT22;11953;49.010;8.608;2023-02-28T06:47:56;-0.40;99.90
23550;DHT22;11953;49.010;8.608;2023-02-28T06:50:43;-0.50;99.90
23550;DHT22;11953;49.010;8.608;2023-02-28T06:53:30;-0.50;99.90
23550;DHT22;11953;49.010;8.608;2023-02-28T06:56:17;-0.50;99.90
23550;DHT22;11953;49.010;8.608;2023-02-28T06:59:05;-0.50;99.90
23550;DHT22;11953;49.010;8.608;2023-02-28T07:01:52;-0.50;99.90
23550;DHT22;11953;49.010;8.608;2023-02-28T07:04:41;-0.50;99.90
23550;DHT22;11953;49.010;8.608;2023-02-28T07:07:29;-0.50;99.90
23550;DHT22;11953;49.010;8.608;2023-02-28T07:10:17;-0.50;99.90
23550;DHT22;11953;49.010;8.608;2023-02-28T07:13:05;-0.50;99.90
23550;DHT22;11953;49.010;8.608;2023-02-28T07:15:56;-0.50;99.90
23550;DHT22;11953;49.010;8.608;2023-02-28T07:18:43;-0.50;99.90
23550;DHT22;11953;49.010;8.608;2023-02-28T07:21:31;-0.50;99.90
23550;DHT22;11953;49.010;8.608;2023-02-28T07:24:18;-0.40;99.90
23550;DHT22;11953;49.010;8.608;2023-02-28T07:27:04;-0.50;99.90
23550;DHT22;11953;49.010;8.608;2023-02-28T07:29:51;-0.40;99.90
23550;DHT22;11953;49.010;8.608;2023-02-28T07:32:38;-0.40;99.90
23550;DHT22;11953;49.010;8.608;2023-02-28T07:35:27;-0.30;99.90
23550;DHT22;11953;49.010;8.608;2023-02-28T07:38:15;-0.30;99.90
23550;DHT22;11953;49.010;8.608;2023-02-28T07:41:02;-0.30;99.90
23550;DHT22;11953;49.010;8.608;2023-02-28T07:43:53;-0.30;99.90
23550;DHT22;11953;49.010;8.608;2023-02-28T07:46:41;-0.30;99.90
23550;DHT22;11953;49.010;8.608;2023-02-28T07:49:28;-0.20;99.90
23550;DHT22;11953;49.010;8.608;2023-02-28T07:52:14;-0.10;99.90
23550;DHT22;11953;49.010;8.608;2023-02-28T07:55:03;-0.10;99.90
23550;DHT22;11953;49.010;8.608;2023-02-28T07:57:49;-0.20;99.90
23550;DHT22;11953;49.010;8.608;2023-02-28T08:00:36;-0.20;99.90
23550;DHT22;11953;49.010;8.608;2023-02-28T08:03:23;-0.30;99.90
23550;DHT22;11953;49.010;8.608;2023-02-28T08:06:16;-0.20;99.90
23550;DHT22;11953;49.010;8.608;2023-02-28T08:09:03;-0.10;99.90
23550;DHT22;11953;49.010;8.608;2023-02-28T08:11:51;-0.20;99.90
23550;DHT22;11953;49.010;8.608;2023-02-28T08:14:39;-0.10;99.90
23550;DHT22;11953;49.010;8.608;2023-02-28T08:17:25;0.00;99.90
23550;DHT22;11953;49.010;8.608;2023-02-28T08:20:12;0.00;99.90
23550;DHT22;11953;49.010;8.608;2023-02-28T08:22:58;0.00;99.90
23550;DHT22;11953;49.010;8.608;2023-02-28T08:25:53;0.10;99.90
23550;DHT22;11953;49.010;8.608;2023-02-28T08:28:41;0.10;99.90
23550;DHT22;11953;49.010;8.608;2023-02-28T08:31:27;0.20;99.90
23550;DHT22;11953;49.010;8.608;2023-02-28T08:34:15;0.20;99.90
23550;DHT22;11953;49.010;8.608;2023-02-28T08:37:02;0.20;99.90
23550;DHT22;11953;49.010;8.608;2023-02-28T08:39:48;0.10;99.90
23550;DHT22;11953;49.010;8.608;2023-02-28T08:42:37;0.20;99.90
23550;DHT22;11953;49.010;8.608;2023-02-28T08:45:25;0.40;99.90
23550;DHT22;11953;49.010;8.608;2023-02-28T08:48:12;0.50;99.90
23550;DHT22;11953;49.010;8.608;2023-02-28T08:51:01;0.60;99.90
23550;DHT22;11953;49.010;8.608;2023-02-28T08:53:54;0.50;99.90
23550;DHT22;11953;49.010;8.608;2023-02-28T08:56:41;0.50;99.90
23550;DHT22;11953;49.010;8.608;2023-02-28T08:59:27;0.50;99.90
23550;DHT22;11953;49.010;8.608;2023-02-28T09:02:16;0.70;99.90
23550;DHT22;11953;49.010;8.608;2023-02-28T09:05:02;0.80;99.90
23550;DHT22;11953;49.010;8.608;2023-02-28T09:07:49;0.90;99.90
23550;DHT22;11953;49.010;8.608;2023-02-28T09:10:36;1.00;99.90
23550;DHT22;11953;49.010;8.608;2023-02-28T09:13:23;1.10;99.90
23550;DHT22;11953;49.010;8.608;2023-02-28T09:16:13;1.10;99.90
23550;DHT22;11953;49.010;8.608;2023-02-28T09:19:02;1.10;99.90
23550;DHT22;11953;49.010;8.608;2023-02-28T09:21:49;1.10;99.90
23550;DHT22;11953;49.010;8.608;2023-02-28T09:24:38;1.30;99.90
23550;DHT22;11953;49.010;8.608;2023-02-28T09:27:29;1.50;99.90
23550;DHT22;11953;49.010;8.608;2023-02-28T09:30:17;1.50;99.90
23550;DHT22;11953;49.010;8.608;2023-02-28T09:33:04;1.60;99.90
23550;DHT22;11953;49.010;8.608;2023-02-28T09:35:58;1.90;99.90
23550;DHT22;11953;49.010;8.608;2023-02-28T09:38:45;1.90;99.90
23550;DHT22;11953;49.010;8.608;2023-02-28T09:41:38;1.90;99.90
23550;DHT22;11953;49.010;8.608;2023-02-28T09:44:36;2.10;99.90
23550;DHT22;11953;49.010;8.608;2023-02-28T09:47:28;2.00;99.90
23550;DHT22;11953;49.010;8.608;2023-02-28T09:50:21;1.80;99.90
23550;DHT22;11953;49.010;8.608;2023-02-28T09:53:16;1.90;99.90
23550;DHT22;11953;49.010;8.608;2023-02-28T09:56:08;1.90;99.90
23550;DHT22;11953;49.010;8.608;2023-02-28T09:58:58;2.00;99.90
23550;DHT22;11953;49.010;8.608;2023-02-28T10:01:54;1.80;99.90
23550;DHT22;11953;49.010;8.608;2023-02-28T10:04:47;1.90;99.90
23550;DHT22;11953;49.010;8.608;2023-02-28T10:07:49;1.90;99.90
23550;DHT22;11953;49.010;8.608;2023-02-28T10:10:40;1.90;99.90
23550;DHT22;11953;49.010;8.608;2023-02-28T10:13:33;1.90;99.90
23550;DHT22;11953;49.010;8.608;2023-02-28T10:16:25;1.90;99.90
23550;DHT22;11953;49.010;8.608;2023-02-28T10:19:15;1.90;99.90
23550;DHT22;11953;49.010;8.608;2023-02-28T10:22:08;2.00;99.90
23550;DHT22;11953;49.010;8.608;2023-02-28T10:24:58;2.00;99.90
23550;DHT22;11953;49.010;8.608;2023-02-28T10:27:55;1.90;99.90
23550;DHT22;11953;49.010;8.608;2023-02-28T10:30:45;1.90;99.90
23550;DHT22;11953;49.010;8.608;2023-02-28T10:33:34;1.90;99.90
23550;DHT22;11953;49.010;8.608;2023-02-28T10:36:22;2.00;99.90
23550;DHT22;11953;49.010;8.608;2023-02-28T10:39:36;2.10;99.90
23550;DHT22;11953;49.010;8.608;2023-02-28T10:42:26;2.00;99.90
23550;DHT22;11953;49.010;8.608;2023-02-28T10:45:15;2.10;99.90
23550;DHT22;11953;49.010;8.608;2023-02-28T10:48:04;2.20;99.90
23550;DHT22;11953;49.010;8.608;2023-02-28T10:50:52;2.20;99.90
23550;DHT22;11953;49.010;8.608;2023-02-28T10:53:48;2.30;99.90
23550;DHT22;11953;49.010;8.608;2023-02-28T10:57:05;2.40;99.90
23550;DHT22;11953;49.010;8.608;2023-02-28T11:00:15;2.50;99.90
23550;DHT22;11953;49.010;8.608;2023-02-28T11:03:25;2.70;99.90
23550;DHT22;11953;49.010;8.608;2023-02-28T11:06:16;2.90;99.90
23550;DHT22;11953;49.010;8.608;2023-02-28T11:09:12;2.80;99.90
23550;DHT22;11953;49.010;8.608;2023-02-28T11:12:05;2.80;99.90
23550;DHT22;11953;49.010;8.608;2023-02-28T11:14:54;2.90;99.90
23550;DHT22;11953;49.010;8.608;2023-02-28T11:17:43;2.90;99.90
23550;DHT22;11953;49.010;8.608;2023-02-28T11:20:32;2.90;99.90
23550;DHT22;11953;49.010;8.608;2023-02-28T11:23:20;2.90;99.90
23550;DHT22;11953;49.010;8.608;2023-02-28T11:26:07;2.90;99.90
23550;DHT22;11953;49.010;8.608;2023-02-28T11:29:08;3.00;99.90
23550;DHT22;11953;49.010;8.608;2023-02-28T11:32:16;3.10;99.90
23550;DHT22;11953;49.010;8.608;2023-02-28T11:35:15;3.10;99.90
23550;DHT22;11953;49.010;8.608;2023-02-28T11:38:07;3.10;99.90
23550;DHT22;11953;49.010;8.608;2023-02-28T11:41:14;3.10;99.90
23550;DHT22;11953;49.010;8.608;2023-02-28T11:44:12;3.10;99.90
23550;DHT22;11953;49.010;8.608;2023-02-28T11:47:06;3.20;99.90
23550;DHT22;11953;49.010;8.608;2023-02-28T11:50:10;3.30;99.90
23550;DHT22;11953;49.010;8.608;2023-02-28T11:53:10;3.20;99.90
23550;DHT22;11953;49.010;8.608;2023-02-28T11:56:02;3.30;99.90
23550;DHT22;11953;49.010;8.608;2023-02-28T11:58:55;3.40;99.90
23550;DHT22;11953;49.010;8.608;2023-02-28T12:02:01;3.40;99.90
23550;DHT22;11953;49.010;8.608;2023-02-28T12:05:17;3.30;99.90
23550;DHT22;11953;49.010;8.608;2023-02-28T12:08:20;3.60;99.90
23550;DHT22;11953;49.010;8.608;2023-02-28T12:11:17;3.90;99.90
23550;DHT22;11953;49.010;8.608;2023-02-28T12:14:22;4.30;99.90
23550;DHT22;11953;49.010;8.608;2023-02-28T12:17:22;4.50;99.90
23550;DHT22;11953;49.010;8.608;2023-02-28T12:20:21;4.60;99.90
23550;DHT22;11953;49.010;8.608;2023-02-28T12:23:40;4.30;99.90
23550;DHT22;11953;49.010;8.608;2023-02-28T12:26:36;4.20;99.90
23550;DHT22;11953;49.010;8.608;2023-02-28T12:29:26;4.40;99.90
23550;DHT22;11953;49.010;8.608;2023-02-28T12:32:18;4.40;99.90
23550;DHT22;11953;49.010;8.608;2023-02-28T12:35:13;4.20;99.90
23550;DHT22;11953;49.010;8.608;2023-02-28T12:38:06;4.20;99.90
23550;DHT22;11953;49.010;8.608;2023-02-28T12:41:00;4.30;99.90
23550;DHT22;11953;49.010;8.608;2023-02-28T12:43:55;4.30;99.90
23550;DHT22;11953;49.010;8.608;2023-02-28T12:46:46;4.40;99.90
23550;DHT22;11953;49.010;8.608;2023-02-28T12:49:38;4.30;99.90
23550;DHT22;11953;49.010;8.608;2023-02-28T12:52:30;4.30;99.90
23550;DHT22;11953;49.010;8.608;2023-02-28T12:55:23;4.40;99.90
23550;DHT22;11953;49.010;8.608;2023-02-28T12:58:20;4.60;99.90
23550;DHT22;11953;49.010;8.608;2023-02-28T13:01:33;4.60;99.90
23550;DHT22;11953;49.010;8.608;2023-02-28T13:04:57;4.70;99.90
23550;DHT22;11953;49.010;8.608;2023-02-28T13:11:03;4.40;99.90
23550;DHT22;11953;49.010;8.608;2023-02-28T13:13:59;4.30;99.90
23550;DHT22;11953;49.010;8.608;2023-02-28T13:17:10;4.30;99.90
23550;DHT22;11953;49.010;8.608;2023-02-28T13:19:59;4.40;99.90
23550;DHT22;11953;49.010;8.608;2023-02-28T13:22:47;4.60;99.90
23550;DHT22;11953;49.010;8.608;2023-02-28T13:25:52;4.90;99.90
23550;DHT22;11953;49.010;8.608;2023-02-28T13:29:28;5.30;99.90
23550;DHT22;11953;49.010;8.608;2023-02-28T13:35:37;5.20;99.90
23550;DHT22;11953;49.010;8.608;2023-02-28T13:38:38;4.90;99.90
23550;DHT22;11953;49.010;8.608;2023-02-28T13:41:44;5.00;99.90
23550;DHT22;11953;49.010;8.608;2023-02-28T13:48:00;5.00;99.90
23550;DHT22;11953;49.010;8.608;2023-02-28T13:50:48;5.20;99.90
23550;DHT22;11953;49.010;8.608;2023-02-28T13:53:54;5.30;99.90
23550;DHT22;11953;49.010;8.608;2023-02-28T13:56:47;5.20;99.90
23550;DHT22;11953;49.010;8.608;2023-02-28T13:59:46;5.10;99.90
23550;DHT22;11953;49.010;8.608;2023-02-28T14:06:16;5.30;99.90
23550;DHT22;11953;49.010;8.608;2023-02-28T14:09:17;5.30;99.90
23550;DHT22;11953;49.010;8.608;2023-02-28T14:15:47;5.20;99.90
23550;DHT22;11953;49.010;8.608;2023-02-28T14:18:37;5.30;99.90
23550;DHT22;11953;49.010;8.608;2023-02-28T14:21:26;5.20;99.90
23550;DHT22;11953;49.010;8.608;2023-02-28T14:27:35;4.90;99.90
23550;DHT22;11953;49.010;8.608;2023-02-28T14:30:43;5.10;99.90
23550;DHT22;11953;49.010;8.608;2023-02-28T14:36:47;5.20;99.90
23550;DHT22;11953;49.010;8.608;2023-02-28T14:39:34;5.20;99.90
23550;DHT22;11953;49.010;8.608;2023-02-28T14:42:31;5.10;99.90
23550;DHT22;11953;49.010;8.608;2023-02-28T14:45:19;4.90;99.90
23550;DHT22;11953;49.010;8.608;2023-02-28T14:48:09;4.90;99.90
23550;DHT22;11953;49.010;8.608;2023-02-28T14:50:59;5.00;99.90
23550;DHT22;11953;49.010;8.608;2023-02-28T14:53:50;5.00;99.90
23550;DHT22;11953;49.010;8.608;2023-02-28T14:56:40;5.00;99.90
23550;DHT22;11953;49.010;8.608;2023-02-28T14:59:28;5.10;99.90
23550;DHT22;11953;49.010;8.608;2023-02-28T15:02:18;5.00;99.90
23550;DHT22;11953;49.010;8.608;2023-02-28T15:05:19;5.00;99.90
23550;DHT22;11953;49.010;8.608;2023-02-28T15:08:14;5.10;99.90
23550;DHT22;11953;49.010;8.608;2023-02-28T15:11:02;5.10;99.90
23550;DHT22;11953;49.010;8.608;2023-02-28T15:13:51;5.10;99.90
23550;DHT22;11953;49.010;8.608;2023-02-28T15:16:42;5.10;99.90
23550;DHT22;11953;49.010;8.608;2023-02-28T15:19:32;5.00;99.90
23550;DHT22;11953;49.010;8.608;2023-02-28T15:22:27;5.00;99.90
23550;DHT22;11953;49.010;8.608;2023-02-28T15:25:20;5.00;99.90
23550;DHT22;11953;49.010;8.608;2023-02-28T15:28:14;4.90;99.90
23550;DHT22;11953;49.010;8.608;2023-02-28T15:31:03;4.90;99.90
23550;DHT22;11953;49.010;8.608;2023-02-28T15:34:04;5.00;99.90
23550;DHT22;11953;49.010;8.608;2023-02-28T15:36:52;5.10;99.90
23550;DHT22;11953;49.010;8.608;2023-02-28T15:39:42;5.40;99.90
23550;DHT22;11953;49.010;8.608;2023-02-28T15:42:31;5.50;99.90
23550;DHT22;11953;49.010;8.608;2023-02-28T15:45:29;5.60;99.90
23550;DHT22;11953;49.010;8.608;2023-02-28T15:48:22;5.60;99.90
23550;DHT22;11953;49.010;8.608;2023-02-28T15:51:23;5.20;99.90
23550;DHT22;11953;49.010;8.608;2023-02-28T15:54:16;5.10;99.90
23550;DHT22;11953;49.010;8.608;2023-02-28T15:57:05;4.80;99.90
23550;DHT22;11953;49.010;8.608;2023-02-28T15:59:57;4.80;99.90
23550;DHT22;11953;49.010;8.608;2023-02-28T16:02:45;4.70;99.90
23550;DHT22;11953;49.010;8.608;2023-02-28T16:05:32;4.70;99.90
23550;DHT22;11953;49.010;8.608;2023-02-28T16:08:19;4.80;99.90
23550;DHT22;11953;49.010;8.608;2023-02-28T16:11:08;4.70;99.90
23550;DHT22;11953;49.010;8.608;2023-02-28T16:13:55;4.60;99.90
23550;DHT22;11953;49.010;8.608;2023-02-28T16:16:44;4.50;99.90
23550;DHT22;11953;49.010;8.608;2023-02-28T16:19:32;4.50;99.90
23550;DHT22;11953;49.010;8.608;2023-02-28T16:22:19;4.60;99.90
23550;DHT22;11953;49.010;8.608;2023-02-28T16:25:06;4.50;99.90
23550;DHT22;11953;49.010;8.608;2023-02-28T16:27:54;4.50;99.90
23550;DHT22;11953;49.010;8.608;2023-02-28T16:30:43;4.50;99.90
23550;DHT22;11953;49.010;8.608;2023-02-28T16:33:31;4.50;99.90
23550;DHT22;11953;49.010;8.608;2023-02-28T16:36:20;4.50;99.90
23550;DHT22;11953;49.010;8.608;2023-02-28T16:39:07;4.40;99.90
23550;DHT22;11953;49.010;8.608;2023-02-28T16:41:54;4.40;99.90
23550;DHT22;11953;49.010;8.608;2023-02-28T16:44:41;4.40;99.90
23550;DHT22;11953;49.010;8.608;2023-02-28T16:47:28;4.30;99.90
23550;DHT22;11953;49.010;8.608;2023-02-28T16:50:20;4.30;99.90
23550;DHT22;11953;49.010;8.608;2023-02-28T16:53:06;4.30;99.90
23550;DHT22;11953;49.010;8.608;2023-02-28T16:55:53;4.20;99.90
23550;DHT22;11953;49.010;8.608;2023-02-28T16:58:39;4.20;99.90
23550;DHT22;11953;49.010;8.608;2023-02-28T17:01:26;4.10;99.90
23550;DHT22;11953;49.010;8.608;2023-02-28T17:04:14;4.10;99.90
23550;DHT22;11953;49.010;8.608;2023-02-28T17:07:02;4.10;99.90
23550;DHT22;11953;49.010;8.608;2023-02-28T17:09:49;4.00;99.90
23550;DHT22;11953;49.010;8.608;2023-02-28T17:12:35;4.00;99.90
23550;DHT22;11953;49.010;8.608;2023-02-28T17:15:22;4.00;99.90
23550;DHT22;11953;49.010;8.608;2023-02-28T17:18:14;3.90;99.90
23550;DHT22;11953;49.010;8.608;2023-02-28T17:21:01;3.90;99.90
23550;DHT22;11953;49.010;8.608;2023-02-28T17:23:49;3.80;99.90
23550;DHT22;11953;49.010;8.608;2023-02-28T17:26:36;3.70;99.90
23550;DHT22;11953;49.010;8.608;2023-02-28T17:29:22;3.70;99.90
23550;DHT22;11953;49.010;8.608;2023-02-28T17:32:09;3.60;99.90
23550;DHT22;11953;49.010;8.608;2023-02-28T17:35:04;3.60;99.90
23550;DHT22;11953;49.010;8.608;2023-02-28T17:37:50;3.60;99.90
23550;DHT22;11953;49.010;8.608;2023-02-28T17:40:39;3.60;99.90
23550;DHT22;11953;49.010;8.608;2023-02-28T17:43:26;3.40;99.90
23550;DHT22;11953;49.010;8.608;2023-02-28T17:46:16;3.40;99.90
23550;DHT22;11953;49.010;8.608;2023-02-28T17:49:05;3.40;99.90
23550;DHT22;11953;49.010;8.608;2023-02-28T17:51:52;3.40;99.90
23550;DHT22;11953;49.010;8.608;2023-02-28T17:54:38;3.40;99.90
23550;DHT22;11953;49.010;8.608;2023-02-28T17:57:26;3.30;99.90
23550;DHT22;11953;49.010;8.608;2023-02-28T18:00:15;3.30;99.90
23550;DHT22;11953;49.010;8.608;2023-02-28T18:03:02;3.30;99.90
23550;DHT22;11953;49.010;8.608;2023-02-28T18:05:50;3.30;99.90
23550;DHT22;11953;49.010;8.608;2023-02-28T18:08:36;3.40;99.90
23550;DHT22;11953;49.010;8.608;2023-02-28T18:11:24;3.40;99.90
23550;DHT22;11953;49.010;8.608;2023-02-28T18:14:14;3.50;99.90
23550;DHT22;11953;49.010;8.608;2023-02-28T18:17:01;3.50;99.90
23550;DHT22;11953;49.010;8.608;2023-02-28T18:19:48;3.40;99.90
23550;DHT22;11953;49.010;8.608;2023-02-28T18:22:34;3.30;99.90
23550;DHT22;11953;49.010;8.608;2023-02-28T18:25:22;3.20;99.90
23550;DHT22;11953;49.010;8.608;2023-02-28T18:28:09;3.20;99.90
23550;DHT22;11953;49.010;8.608;2023-02-28T18:30:56;3.20;99.90
23550;DHT22;11953;49.010;8.608;2023-02-28T18:33:44;3.10;99.90
23550;DHT22;11953;49.010;8.608;2023-02-28T18:36:32;3.10;99.90
23550;DHT22;11953;49.010;8.608;2023-02-28T18:39:20;3.10;99.90